createdAt,value
2019-04-23T00:02:39.499Z,9.80
2019-04-23T00:23:06.123Z,9.80
2019-04-23T00:33:12.379Z,9.90
2019-04-23T00:53:23.496Z,9.80
2019-04-23T01:03:25.205Z,9.70
2019-04-23T01:13:45.674Z,9.70
2019-04-23T01:23:47.095Z,9.50
2019-04-23T01:34:20.927Z,9.40
2019-04-23T01:44:30.204Z,9.20
2019-04-23T01:54:30.439Z,9.10
2019-04-23T02:04:36.552Z,9.10
2019-04-23T02:14:43.369Z,9.10
2019-04-23T02:24:57.288Z,9.10
2019-04-23T02:45:10.329Z,9.10
2019-04-23T02:55:21.477Z,9.00
2019-04-23T03:05:21.036Z,9.00
2019-04-23T03:25:59.726Z,8.90
2019-04-23T03:46:26.210Z,9.30
2019-04-23T03:56:22.518Z,10.60
2019-04-23T04:06:37.678Z,12.10
2019-04-23T04:16:34.249Z,13.40
2019-04-23T04:36:58.410Z,15.70
2019-04-23T04:46:53.952Z,16.70
2019-04-23T04:57:07.710Z,17.50
2019-04-23T05:07:08.679Z,18.60
2019-04-23T05:17:49.393Z,19.10
2019-04-23T05:27:37.538Z,19.70
2019-04-23T05:38:08.676Z,20.00
2019-04-23T05:58:19.874Z,20.80
2019-04-23T06:08:07.870Z,20.80
2019-04-23T06:18:17.099Z,21.10
2019-04-23T06:28:24.142Z,21.30
2019-04-23T06:48:35.493Z,21.20
2019-04-23T06:58:37.365Z,21.00
2019-04-23T07:18:57.561Z,20.00
2019-04-23T07:29:03.437Z,20.10
2019-04-23T07:39:35.597Z,19.60
2019-04-23T07:49:26.567Z,19.00
2019-04-23T07:59:33.293Z,18.50
2019-04-23T08:29:54.408Z,17.90
2019-04-23T08:40:01.446Z,17.50
2019-04-23T08:50:23.335Z,17.30
2019-04-23T09:00:14.454Z,17.20
2019-04-23T09:10:27.713Z,17.30
2019-04-23T09:20:27.716Z,17.40
2019-04-23T09:30:38.780Z,17.10
2019-04-23T09:41:17.676Z,17.10
2019-04-23T09:51:30.864Z,17.20
2019-04-23T10:01:26.657Z,17.00
2019-04-23T10:11:09.295Z,16.90
2019-04-23T10:21:15.607Z,17.10
2019-04-23T10:31:22.763Z,17.20
2019-04-23T10:41:29.075Z,17.30
2019-04-23T11:02:34.743Z,17.40
2019-04-23T11:12:37.064Z,17.80
2019-04-23T11:53:01.198Z,17.90
2019-04-23T12:03:07.418Z,17.90
2019-04-23T12:13:35.413Z,17.80
2019-04-23T12:43:47.393Z,18.20
2019-04-23T12:53:56.463Z,18.40
2019-04-23T13:03:59.409Z,18.50
2019-04-23T13:14:17.402Z,18.60
2019-04-23T13:24:40.768Z,18.60
2019-04-23T13:44:54.823Z,18.70
2019-04-23T14:05:24.035Z,19.00
2019-04-23T14:15:40.507Z,18.90
2019-04-23T14:25:46.756Z,19.00
2019-04-23T14:35:45.407Z,18.80
2019-04-23T15:06:44.617Z,18.70
2019-04-23T15:16:40.581Z,18.70
2019-04-23T15:47:05.284Z,18.50
2019-04-23T15:57:05.510Z,18.50
2019-04-23T16:06:43.592Z,18.30
2019-04-23T16:17:24.020Z,18.20
2019-04-23T16:27:16.749Z,18.10
2019-04-23T16:37:49.198Z,18.00
2019-04-23T16:47:36.884Z,17.90
2019-04-23T17:08:23.288Z,17.70
2019-04-23T17:18:08.852Z,17.60
2019-04-23T17:28:21.827Z,17.40
2019-04-23T17:38:23.043Z,17.20
2019-04-23T17:48:21.989Z,17.10
2019-04-23T17:58:34.318Z,16.90
2019-04-23T18:29:12.671Z,16.20
2019-04-23T18:49:15.871Z,15.90
2019-04-23T18:59:24.786Z,15.80
2019-04-23T19:09:39.158Z,15.60
2019-04-23T19:19:42.006Z,15.50
2019-04-23T19:39:51.899Z,15.30
2019-04-23T19:49:58.912Z,15.10
2019-04-23T20:00:13.408Z,15.00
2019-04-23T20:10:12.379Z,14.70
2019-04-23T20:20:25.633Z,14.50
2019-04-23T20:31:50.498Z,14.30
2019-04-23T20:50:52.347Z,13.90
2019-04-23T21:01:26.956Z,13.90
2019-04-23T21:21:46.418Z,13.60
2019-04-23T21:31:55.550Z,13.50
2019-04-23T21:42:21.281Z,13.40
2019-04-23T21:52:30.374Z,13.30
2019-04-23T22:02:38.454Z,13.30
2019-04-23T22:12:54.676Z,13.20
2019-04-23T22:33:02.960Z,13.00
2019-04-23T22:43:15.038Z,12.80
2019-04-23T23:03:29.478Z,12.50
2019-04-23T23:13:46.663Z,12.50
2019-04-23T23:23:40.247Z,12.30
2019-04-23T23:33:47.480Z,12.10
2019-04-23T23:44:08.194Z,12.00
